sensor_id;sensor_type;location;lat;lon;timestamp;pressure;altitude;pressure_sealevel;temperature;humidity
1401;BME280;46518;48.842;8.926;2024-03-02T00:02:08;95973.69;;;6.38;100.00
1401;BME280;46518;48.842;8.926;2024-03-02T00:04:36;95972.34;;;6.36;100.00
1401;BME280;46518;48.842;8.926;2024-03-02T00:07:07;95984.84;;;6.34;100.00
1401;BME280;46518;48.842;8.926;2024-03-02T00:09:36;95968.84;;;6.25;100.00
1401;BME280;46518;48.842;8.926;2024-03-02T00:12:10;95970.41;;;6.53;100.00
1401;BME280;46518;48.842;8.926;2024-03-02T00:14:42;95973.13;;;6.63;100.00
1401;BME280;46518;48.842;8.926;2024-03-02T00:17:24;95983.09;;;6.39;100.00
1401;BME280;46518;48.842;8.926;2024-03-02T00:19:53;95973.84;;;6.26;100.00
1401;BME280;46518;48.842;8.926;2024-03-02T00:22:23;95972.91;;;6.16;100.00
1401;BME280;46518;48.842;8.926;2024-03-02T00:24:52;95977.34;;;6.15;100.00
1401;BME280;46518;48.842;8.926;2024-03-02T00:27:21;95980.22;;;6.14;100.00
1401;BME280;46518;48.842;8.926;2024-03-02T00:30:41;95965.56;;;6.13;100.00
1401;BME280;46518;48.842;8.926;2024-03-02T00:33:13;95974.75;;;6.15;100.00
1401;BME280;46518;48.842;8.926;2024-03-02T00:35:44;95969.94;;;6.29;100.00
1401;BME280;46518;48.842;8.926;2024-03-02T00:38:15;95970.41;;;6.26;100.00
1401;BME280;46518;48.842;8.926;2024-03-02T00:40:46;95977.56;;;6.36;100.00
1401;BME280;46518;48.842;8.926;2024-03-02T00:43:43;95977.47;;;6.25;100.00
1401;BME280;46518;48.842;8.926;2024-03-02T00:46:17;95970.19;;;6.55;100.00
1401;BME280;46518;48.842;8.926;2024-03-02T00:48:55;95977.63;;;6.68;100.00
1401;BME280;46518;48.842;8.926;2024-03-02T00:51:25;95979.03;;;6.54;99.71
1401;BME280;46518;48.842;8.926;2024-03-02T00:54:05;95984.53;;;6.52;100.00
1401;BME280;46518;48.842;8.926;2024-03-02T00:56:35;95972.06;;;6.59;100.00
1401;BME280;46518;48.842;8.926;2024-03-02T00:59:06;95976.69;;;6.52;99.45
1401;BME280;46518;48.842;8.926;2024-03-02T01:01:37;95973.78;;;6.48;100.00
1401;BME280;46518;48.842;8.926;2024-03-02T01:04:07;95979.75;;;6.17;100.00
1401;BME280;46518;48.842;8.926;2024-03-02T01:06:38;95983.38;;;6.16;100.00
1401;BME280;46518;48.842;8.926;2024-03-02T01:09:09;95981.56;;;5.94;100.00
1401;BME280;46518;48.842;8.926;2024-03-02T01:11:39;95985.88;;;6.05;100.00
1401;BME280;46518;48.842;8.926;2024-03-02T01:14:08;95986.78;;;5.94;100.00
1401;BME280;46518;48.842;8.926;2024-03-02T01:16:37;95991.94;;;5.89;100.00
1401;BME280;46518;48.842;8.926;2024-03-02T01:19:07;95985.22;;;5.76;100.00
1401;BME280;46518;48.842;8.926;2024-03-02T01:21:37;95982.44;;;5.83;100.00
1401;BME280;46518;48.842;8.926;2024-03-02T01:24:07;95985.53;;;5.80;100.00
1401;BME280;46518;48.842;8.926;2024-03-02T01:26:39;95980.56;;;5.78;100.00
1401;BME280;46518;48.842;8.926;2024-03-02T01:29:10;95978.13;;;5.72;100.00
1401;BME280;46518;48.842;8.926;2024-03-02T01:31:39;95970.09;;;5.56;100.00
1401;BME280;46518;48.842;8.926;2024-03-02T01:34:09;95968.59;;;5.60;100.00
1401;BME280;46518;48.842;8.926;2024-03-02T01:36:44;95963.38;;;5.60;100.00
1401;BME280;46518;48.842;8.926;2024-03-02T01:39:13;95956.03;;;5.57;100.00
1401;BME280;46518;48.842;8.926;2024-03-02T01:41:45;95969.63;;;5.59;100.00
1401;BME280;46518;48.842;8.926;2024-03-02T01:44:16;95963.91;;;5.62;100.00
1401;BME280;46518;48.842;8.926;2024-03-02T01:46:48;95960.25;;;5.63;100.00
1401;BME280;46518;48.842;8.926;2024-03-02T01:49:20;95964.22;;;5.88;100.00
1401;BME280;46518;48.842;8.926;2024-03-02T01:51:53;95946.06;;;5.76;100.00
1401;BME280;46518;48.842;8.926;2024-03-02T01:54:25;95948.00;;;5.42;100.00
1401;BME280;46518;48.842;8.926;2024-03-02T01:56:59;95962.06;;;5.41;100.00
1401;BME280;46518;48.842;8.926;2024-03-02T01:59:30;95952.19;;;5.26;100.00
1401;BME280;46518;48.842;8.926;2024-03-02T02:02:01;95958.75;;;5.29;100.00
1401;BME280;46518;48.842;8.926;2024-03-02T02:04:31;95953.81;;;5.27;100.00
1401;BME280;46518;48.842;8.926;2024-03-02T02:07:03;95967.47;;;5.34;100.00
1401;BME280;46518;48.842;8.926;2024-03-02T02:09:36;95946.28;;;5.31;100.00
1401;BME280;46518;48.842;8.926;2024-03-02T02:12:09;95955.84;;;5.25;100.00
1401;BME280;46518;48.842;8.926;2024-03-02T02:14:47;95958.03;;;5.33;100.00
1401;BME280;46518;48.842;8.926;2024-03-02T02:17:18;95954.81;;;5.26;100.00
1401;BME280;46518;48.842;8.926;2024-03-02T02:19:48;95958.63;;;5.18;100.00
1401;BME280;46518;48.842;8.926;2024-03-02T02:22:20;95953.09;;;5.15;100.00
1401;BME280;46518;48.842;8.926;2024-03-02T02:24:50;95952.31;;;5.14;100.00
1401;BME280;46518;48.842;8.926;2024-03-02T02:27:21;95947.09;;;5.14;100.00
1401;BME280;46518;48.842;8.926;2024-03-02T02:29:52;95950.72;;;5.13;100.00
1401;BME280;46518;48.842;8.926;2024-03-02T02:32:22;95953.59;;;5.12;100.00
1401;BME280;46518;48.842;8.926;2024-03-02T02:34:52;95950.91;;;5.07;100.00
1401;BME280;46518;48.842;8.926;2024-03-02T02:37:24;95947.09;;;5.14;100.00
1401;BME280;46518;48.842;8.926;2024-03-02T02:39:55;95929.41;;;5.00;100.00
1401;BME280;46518;48.842;8.926;2024-03-02T02:42:28;95944.41;;;5.09;100.00
1401;BME280;46518;48.842;8.926;2024-03-02T02:44:58;95937.13;;;5.11;100.00
1401;BME280;46518;48.842;8.926;2024-03-02T02:47:29;95932.88;;;5.05;100.00
1401;BME280;46518;48.842;8.926;2024-03-02T02:50:03;95939.38;;;5.03;100.00
1401;BME280;46518;48.842;8.926;2024-03-02T02:52:36;95939.78;;;4.94;100.00
1401;BME280;46518;48.842;8.926;2024-03-02T02:55:09;95941.25;;;4.90;100.00
1401;BME280;46518;48.842;8.926;2024-03-02T02:57:40;95939.63;;;4.84;100.00
1401;BME280;46518;48.842;8.926;2024-03-02T03:00:14;95937.09;;;4.89;100.00
1401;BME280;46518;48.842;8.926;2024-03-02T03:02:46;95934.41;;;4.84;100.00
1401;BME280;46518;48.842;8.926;2024-03-02T03:05:19;95935.97;;;4.85;100.00
1401;BME280;46518;48.842;8.926;2024-03-02T03:07:49;95938.59;;;4.85;100.00
1401;BME280;46518;48.842;8.926;2024-03-02T03:10:20;95940.16;;;4.86;100.00
1401;BME280;46518;48.842;8.926;2024-03-02T03:12:52;95938.09;;;4.88;100.00
1401;BME280;46518;48.842;8.926;2024-03-02T03:15:25;95943.88;;;4.90;100.00
1401;BME280;46518;48.842;8.926;2024-03-02T03:17:56;95941.50;;;4.89;100.00
1401;BME280;46518;48.842;8.926;2024-03-02T03:20:28;95942.75;;;4.86;100.00
1401;BME280;46518;48.842;8.926;2024-03-02T03:22:59;95931.25;;;4.82;100.00
1401;BME280;46518;48.842;8.926;2024-03-02T03:25:29;95942.53;;;4.88;100.00
1401;BME280;46518;48.842;8.926;2024-03-02T03:28:00;95937.94;;;4.78;100.00
1401;BME280;46518;48.842;8.926;2024-03-02T03:30:32;95938.88;;;4.89;100.00
1401;BME280;46518;48.842;8.926;2024-03-02T03:33:04;95931.63;;;4.91;100.00
1401;BME280;46518;48.842;8.926;2024-03-02T03:35:36;95943.31;;;4.88;100.00
1401;BME280;46518;48.842;8.926;2024-03-02T03:38:08;95941.41;;;4.84;100.00
1401;BME280;46518;48.842;8.926;2024-03-02T03:40:39;95942.69;;;4.81;100.00
1401;BME280;46518;48.842;8.926;2024-03-02T03:43:09;95941.75;;;4.87;100.00
1401;BME280;46518;48.842;8.926;2024-03-02T03:45:40;95932.59;;;4.85;100.00
1401;BME280;46518;48.842;8.926;2024-03-02T03:48:12;95937.31;;;4.88;100.00
1401;BME280;46518;48.842;8.926;2024-03-02T03:50:44;95926.59;;;4.84;100.00
1401;BME280;46518;48.842;8.926;2024-03-02T03:53:17;95929.72;;;4.86;100.00
1401;BME280;46518;48.842;8.926;2024-03-02T03:55:47;95931.06;;;4.89;100.00
1401;BME280;46518;48.842;8.926;2024-03-02T03:58:20;95941.00;;;5.09;100.00
1401;BME280;46518;48.842;8.926;2024-03-02T04:00:53;95931.19;;;5.16;100.00
1401;BME280;46518;48.842;8.926;2024-03-02T04:03:25;95928.44;;;5.06;100.00
1401;BME280;46518;48.842;8.926;2024-03-02T04:05:56;95930.97;;;5.01;100.00
1401;BME280;46518;48.842;8.926;2024-03-02T04:08:32;95938.41;;;5.09;100.00
1401;BME280;46518;48.842;8.926;2024-03-02T04:11:11;95921.75;;;4.93;100.00
1401;BME280;46518;48.842;8.926;2024-03-02T04:13:52;95944.56;;;4.69;100.00
1401;BME280;46518;48.842;8.926;2024-03-02T04:16:27;95946.53;;;4.79;100.00
1401;BME280;46518;48.842;8.926;2024-03-02T04:18:59;95938.56;;;4.68;100.00
1401;BME280;46518;48.842;8.926;2024-03-02T04:21:31;95947.97;;;4.69;100.00
1401;BME280;46518;48.842;8.926;2024-03-02T04:24:07;95934.88;;;4.64;100.00
1401;BME280;46518;48.842;8.926;2024-03-02T04:26:43;95942.78;;;4.69;100.00
1401;BME280;46518;48.842;8.926;2024-03-02T04:29:16;95948.69;;;4.65;100.00
1401;BME280;46518;48.842;8.926;2024-03-02T04:31:49;95923.47;;;4.53;100.00
1401;BME280;46518;48.842;8.926;2024-03-02T04:34:21;95923.78;;;4.74;100.00
1401;BME280;46518;48.842;8.926;2024-03-02T04:36:54;95929.81;;;4.74;100.00
1401;BME280;46518;48.842;8.926;2024-03-02T04:39:28;95930.03;;;4.73;100.00
1401;BME280;46518;48.842;8.926;2024-03-02T04:42:00;95906.81;;;4.71;100.00
1401;BME280;46518;48.842;8.926;2024-03-02T04:44:34;95938.09;;;4.71;100.00
1401;BME280;46518;48.842;8.926;2024-03-02T04:47:07;95924.91;;;4.78;100.00
1401;BME280;46518;48.842;8.926;2024-03-02T04:49:45;95935.91;;;4.80;100.00
1401;BME280;46518;48.842;8.926;2024-03-02T04:52:22;95943.06;;;4.56;100.00
1401;BME280;46518;48.842;8.926;2024-03-02T04:54:56;95939.97;;;4.59;100.00
1401;BME280;46518;48.842;8.926;2024-03-02T04:57:46;95948.44;;;4.66;100.00
1401;BME280;46518;48.842;8.926;2024-03-02T05:00:21;95934.28;;;4.45;100.00
1401;BME280;46518;48.842;8.926;2024-03-02T05:02:53;95936.13;;;4.45;100.00
1401;BME280;46518;48.842;8.926;2024-03-02T05:05:25;95945.13;;;4.71;100.00
1401;BME280;46518;48.842;8.926;2024-03-02T05:07:57;95946.66;;;4.67;100.00
1401;BME280;46518;48.842;8.926;2024-03-02T05:10:31;95931.25;;;4.37;100.00
1401;BME280;46518;48.842;8.926;2024-03-02T05:13:03;95909.09;;;4.34;100.00
1401;BME280;46518;48.842;8.926;2024-03-02T05:15:36;95936.13;;;4.45;100.00
1401;BME280;46518;48.842;8.926;2024-03-02T05:18:08;95950.19;;;4.61;100.00
1401;BME280;46518;48.842;8.926;2024-03-02T05:20:41;95950.78;;;4.51;100.00
1401;BME280;46518;48.842;8.926;2024-03-02T05:23:13;95936.41;;;4.48;100.00
1401;BME280;46518;48.842;8.926;2024-03-02T05:25:45;95950.97;;;4.44;100.00
1401;BME280;46518;48.842;8.926;2024-03-02T05:28:18;95942.13;;;4.62;100.00
1401;BME280;46518;48.842;8.926;2024-03-02T05:30:49;95955.13;;;4.45;100.00
1401;BME280;46518;48.842;8.926;2024-03-02T05:33:21;95953.97;;;4.53;100.00
1401;BME280;46518;48.842;8.926;2024-03-02T05:35:53;95966.50;;;4.56;100.00
1401;BME280;46518;48.842;8.926;2024-03-02T05:38:23;95957.41;;;4.42;100.00
1401;BME280;46518;48.842;8.926;2024-03-02T05:40:52;95956.94;;;4.45;100.00
1401;BME280;46518;48.842;8.926;2024-03-02T05:43:21;95956.16;;;4.44;100.00
1401;BME280;46518;48.842;8.926;2024-03-02T05:45:50;95963.72;;;4.46;100.00
1401;BME280;46518;48.842;8.926;2024-03-02T05:48:19;95967.16;;;4.63;100.00
1401;BME280;46518;48.842;8.926;2024-03-02T05:50:48;95961.78;;;4.53;100.00
1401;BME280;46518;48.842;8.926;2024-03-02T05:53:16;95961.63;;;4.60;100.00
1401;BME280;46518;48.842;8.926;2024-03-02T05:55:45;95962.16;;;4.62;100.00
1401;BME280;46518;48.842;8.926;2024-03-02T05:58:16;95960.03;;;4.59;100.00
1401;BME280;46518;48.842;8.926;2024-03-02T06:00:55;95957.06;;;4.67;100.00
1401;BME280;46518;48.842;8.926;2024-03-02T06:03:24;95953.19;;;4.69;100.00
1401;BME280;46518;48.842;8.926;2024-03-02T06:05:53;95960.13;;;4.81;100.00
1401;BME280;46518;48.842;8.926;2024-03-02T06:08:22;95964.09;;;4.83;100.00
1401;BME280;46518;48.842;8.926;2024-03-02T06:10:50;95955.88;;;4.91;100.00
1401;BME280;46518;48.842;8.926;2024-03-02T06:13:21;95966.78;;;4.88;100.00
1401;BME280;46518;48.842;8.926;2024-03-02T06:15:50;95965.44;;;4.86;100.00
1401;BME280;46518;48.842;8.926;2024-03-02T06:18:18;95946.38;;;4.68;100.00
1401;BME280;46518;48.842;8.926;2024-03-02T06:20:47;95957.38;;;4.70;100.00
1401;BME280;46518;48.842;8.926;2024-03-02T06:23:16;95961.09;;;4.74;100.00
1401;BME280;46518;48.842;8.926;2024-03-02T06:25:44;95958.78;;;4.78;100.00
1401;BME280;46518;48.842;8.926;2024-03-02T06:28:13;95968.03;;;4.86;100.00
1401;BME280;46518;48.842;8.926;2024-03-02T06:31:00;95968.59;;;4.88;100.00
1401;BME280;46518;48.842;8.926;2024-03-02T06:33:31;95972.84;;;4.94;100.00
1401;BME280;46518;48.842;8.926;2024-03-02T06:36:00;95969.94;;;4.90;100.00
1401;BME280;46518;48.842;8.926;2024-03-02T06:38:28;95976.50;;;4.93;100.00
1401;BME280;46518;48.842;8.926;2024-03-02T06:40:59;95982.34;;;5.00;100.00
1401;BME280;46518;48.842;8.926;2024-03-02T06:43:27;95983.69;;;5.03;100.00
1401;BME280;46518;48.842;8.926;2024-03-02T06:45:57;95978.06;;;4.94;100.00
1401;BME280;46518;48.842;8.926;2024-03-02T06:48:26;95984.41;;;4.98;100.00
1401;BME280;46518;48.842;8.926;2024-03-02T06:50:55;95979.09;;;4.93;100.00
1401;BME280;46518;48.842;8.926;2024-03-02T06:53:26;95972.63;;;4.95;100.00
1401;BME280;46518;48.842;8.926;2024-03-02T06:55:55;95972.69;;;5.01;100.00
1401;BME280;46518;48.842;8.926;2024-03-02T06:58:23;95981.22;;;4.96;100.00
1401;BME280;46518;48.842;8.926;2024-03-02T07:00:52;95977.91;;;5.01;100.00
1401;BME280;46518;48.842;8.926;2024-03-02T07:03:23;95969.47;;;5.10;100.00
1401;BME280;46518;48.842;8.926;2024-03-02T07:05:51;95976.66;;;5.20;100.00
1401;BME280;46518;48.842;8.926;2024-03-02T07:08:19;95978.84;;;5.28;100.00
1401;BME280;46518;48.842;8.926;2024-03-02T07:10:48;95980.44;;;5.29;100.00
1401;BME280;46518;48.842;8.926;2024-03-02T07:13:17;95986.44;;;5.30;100.00
1401;BME280;46518;48.842;8.926;2024-03-02T07:15:45;95990.75;;;5.41;100.00
1401;BME280;46518;48.842;8.926;2024-03-02T07:18:39;95991.31;;;5.43;100.00
1401;BME280;46518;48.842;8.926;2024-03-02T07:21:12;95999.84;;;5.55;100.00
1401;BME280;46518;48.842;8.926;2024-03-02T07:23:40;95990.94;;;5.34;100.00
1401;BME280;46518;48.842;8.926;2024-03-02T07:26:08;95989.34;;;5.33;100.00
1401;BME280;46518;48.842;8.926;2024-03-02T07:28:40;95990.81;;;5.46;100.00
1401;BME280;46518;48.842;8.926;2024-03-02T07:31:08;95994.53;;;5.50;100.00
1401;BME280;46518;48.842;8.926;2024-03-02T07:33:37;95994.81;;;5.32;100.00
1401;BME280;46518;48.842;8.926;2024-03-02T07:36:07;95992.66;;;5.29;100.00
1401;BME280;46518;48.842;8.926;2024-03-02T07:38:35;95996.94;;;5.18;100.00
1401;BME280;46518;48.842;8.926;2024-03-02T07:41:03;95997.97;;;5.34;100.00
1401;BME280;46518;48.842;8.926;2024-03-02T07:43:32;95988.22;;;5.46;100.00
1401;BME280;46518;48.842;8.926;2024-03-02T07:46:01;95996.88;;;5.30;100.00
1401;BME280;46518;48.842;8.926;2024-03-02T07:48:30;95993.56;;;5.17;100.00
1401;BME280;46518;48.842;8.926;2024-03-02T07:50:58;96003.91;;;5.12;100.00
1401;BME280;46518;48.842;8.926;2024-03-02T07:53:28;95999.56;;;5.18;100.00
1401;BME280;46518;48.842;8.926;2024-03-02T07:55:57;95995.75;;;5.09;100.00
1401;BME280;46518;48.842;8.926;2024-03-02T07:58:29;96005.47;;;5.13;100.00
1401;BME280;46518;48.842;8.926;2024-03-02T08:01:01;96005.25;;;5.15;100.00
1401;BME280;46518;48.842;8.926;2024-03-02T08:03:30;95999.06;;;5.21;100.00
1401;BME280;46518;48.842;8.926;2024-03-02T08:05:59;96005.06;;;5.38;100.00
1401;BME280;46518;48.842;8.926;2024-03-02T08:08:29;96000.00;;;5.49;100.00
1401;BME280;46518;48.842;8.926;2024-03-02T08:10:58;96003.56;;;5.59;100.00
1401;BME280;46518;48.842;8.926;2024-03-02T08:13:28;95998.03;;;5.78;100.00
1401;BME280;46518;48.842;8.926;2024-03-02T08:16:00;95985.25;;;5.98;100.00
1401;BME280;46518;48.842;8.926;2024-03-02T08:18:34;95995.09;;;6.13;100.00
1401;BME280;46518;48.842;8.926;2024-03-02T08:21:05;95990.59;;;6.09;100.00
1401;BME280;46518;48.842;8.926;2024-03-02T08:23:36;95987.38;;;6.01;100.00
1401;BME280;46518;48.842;8.926;2024-03-02T08:26:08;95981.81;;;6.15;100.00
1401;BME280;46518;48.842;8.926;2024-03-02T08:28:40;95981.91;;;6.25;100.00
1401;BME280;46518;48.842;8.926;2024-03-02T08:31:10;95976.84;;;6.40;100.00
1401;BME280;46518;48.842;8.926;2024-03-02T08:33:39;95975.16;;;6.56;100.00
1401;BME280;46518;48.842;8.926;2024-03-02T08:36:10;95978.75;;;6.77;100.00
1401;BME280;46518;48.842;8.926;2024-03-02T08:38:42;95980.81;;;6.75;100.00
1401;BME280;46518;48.842;8.926;2024-03-02T08:41:12;95985.16;;;6.91;100.00
1401;BME280;46518;48.842;8.926;2024-03-02T08:43:43;95975.81;;;7.06;100.00
1401;BME280;46518;48.842;8.926;2024-03-02T08:46:11;95973.66;;;6.93;98.25
1401;BME280;46518;48.842;8.926;2024-03-02T08:48:40;95981.38;;;7.09;99.32
1401;BME280;46518;48.842;8.926;2024-03-02T08:51:08;95981.22;;;7.26;100.00
1401;BME280;46518;48.842;8.926;2024-03-02T08:53:37;95986.53;;;7.37;99.03
1401;BME280;46518;48.842;8.926;2024-03-02T08:56:07;95978.16;;;7.40;96.60
1401;BME280;46518;48.842;8.926;2024-03-02T08:58:35;95982.38;;;7.46;96.10
1401;BME280;46518;48.842;8.926;2024-03-02T09:01:04;95987.81;;;7.76;98.21
1401;BME280;46518;48.842;8.926;2024-03-02T09:03:34;95985.16;;;7.71;93.50
1401;BME280;46518;48.842;8.926;2024-03-02T09:06:03;95982.84;;;7.85;93.43
1401;BME280;46518;48.842;8.926;2024-03-02T09:08:31;95979.72;;;7.93;92.19
1401;BME280;46518;48.842;8.926;2024-03-02T09:11:00;95988.94;;;8.06;91.71
1401;BME280;46518;48.842;8.926;2024-03-02T09:13:29;95983.03;;;8.31;90.43
1401;BME280;46518;48.842;8.926;2024-03-02T09:15:58;95982.84;;;8.58;91.09
1401;BME280;46518;48.842;8.926;2024-03-02T09:18:26;95981.56;;;8.71;88.69
1401;BME280;46518;48.842;8.926;2024-03-02T09:20:55;95980.50;;;8.82;87.57
1401;BME280;46518;48.842;8.926;2024-03-02T09:23:23;95979.19;;;8.95;86.71
1401;BME280;46518;48.842;8.926;2024-03-02T09:25:52;95978.66;;;8.88;87.99
1401;BME280;46518;48.842;8.926;2024-03-02T09:28:20;95961.63;;;8.91;86.13
1401;BME280;46518;48.842;8.926;2024-03-02T09:30:50;95957.69;;;8.93;84.89
1401;BME280;46518;48.842;8.926;2024-03-02T09:33:18;95968.69;;;9.11;83.82
1401;BME280;46518;48.842;8.926;2024-03-02T09:35:47;95957.13;;;9.37;82.17
1401;BME280;46518;48.842;8.926;2024-03-02T09:38:21;95960.78;;;9.52;81.04
1401;BME280;46518;48.842;8.926;2024-03-02T09:40:50;95958.41;;;9.45;79.87
1401;BME280;46518;48.842;8.926;2024-03-02T09:43:19;95950.81;;;9.48;78.80
1401;BME280;46518;48.842;8.926;2024-03-02T09:45:51;95966.28;;;9.55;77.67
1401;BME280;46518;48.842;8.926;2024-03-02T09:48:20;95947.06;;;9.70;76.36
1401;BME280;46518;48.842;8.926;2024-03-02T09:50:49;95957.53;;;9.80;76.01
1401;BME280;46518;48.842;8.926;2024-03-02T09:53:18;95954.63;;;9.87;74.86
1401;BME280;46518;48.842;8.926;2024-03-02T09:55:47;95953.19;;;10.15;76.51
1401;BME280;46518;48.842;8.926;2024-03-02T09:58:16;95951.06;;;10.17;75.95
1401;BME280;46518;48.842;8.926;2024-03-02T10:00:46;95940.66;;;10.51;75.99
1401;BME280;46518;48.842;8.926;2024-03-02T10:03:20;95941.78;;;10.79;73.56
1401;BME280;46518;48.842;8.926;2024-03-02T10:08:56;95919.81;;;11.23;71.49
1401;BME280;46518;48.842;8.926;2024-03-02T10:11:31;95919.94;;;11.37;70.88
1401;BME280;46518;48.842;8.926;2024-03-02T10:14:07;95948.19;;;11.80;70.15
1401;BME280;46518;48.842;8.926;2024-03-02T10:16:39;95950.63;;;11.76;68.89
1401;BME280;46518;48.842;8.926;2024-03-02T10:19:20;95924.66;;;11.64;67.43
1401;BME280;46518;48.842;8.926;2024-03-02T10:21:53;95927.66;;;11.53;67.20
1401;BME280;46518;48.842;8.926;2024-03-02T10:24:28;95932.09;;;11.57;68.27
1401;BME280;46518;48.842;8.926;2024-03-02T10:26:59;95922.28;;;11.63;67.98
1401;BME280;46518;48.842;8.926;2024-03-02T10:29:30;95906.25;;;11.35;67.99
1401;BME280;46518;48.842;8.926;2024-03-02T10:32:02;95903.19;;;11.52;67.40
1401;BME280;46518;48.842;8.926;2024-03-02T10:34:39;95917.97;;;11.48;66.99
1401;BME280;46518;48.842;8.926;2024-03-02T10:37:10;95907.94;;;11.50;66.04
1401;BME280;46518;48.842;8.926;2024-03-02T10:39:41;95929.47;;;11.57;66.78
1401;BME280;46518;48.842;8.926;2024-03-02T10:42:12;95933.63;;;11.63;65.09
1401;BME280;46518;48.842;8.926;2024-03-02T10:44:43;95908.31;;;11.62;64.88
1401;BME280;46518;48.842;8.926;2024-03-02T10:47:15;95913.44;;;11.54;64.73
1401;BME280;46518;48.842;8.926;2024-03-02T10:49:51;95915.13;;;11.69;63.08
1401;BME280;46518;48.842;8.926;2024-03-02T10:52:21;95909.06;;;11.92;63.34
1401;BME280;46518;48.842;8.926;2024-03-02T10:54:52;95908.78;;;11.94;64.06
1401;BME280;46518;48.842;8.926;2024-03-02T10:57:25;95913.72;;;12.19;62.46
1401;BME280;46518;48.842;8.926;2024-03-02T10:59:57;95896.69;;;12.30;61.38
1401;BME280;46518;48.842;8.926;2024-03-02T11:02:31;95898.09;;;12.23;62.72
1401;BME280;46518;48.842;8.926;2024-03-02T11:05:06;95908.50;;;11.47;61.69
1401;BME280;46518;48.842;8.926;2024-03-02T11:07:37;95908.91;;;11.59;63.61
1401;BME280;46518;48.842;8.926;2024-03-02T11:10:08;95899.97;;;11.55;62.23
1401;BME280;46518;48.842;8.926;2024-03-02T11:12:39;95906.34;;;11.97;62.39
1401;BME280;46518;48.842;8.926;2024-03-02T11:15:16;95903.19;;;12.38;60.48
1401;BME280;46518;48.842;8.926;2024-03-02T11:17:46;95906.13;;;12.69;59.53
1401;BME280;46518;48.842;8.926;2024-03-02T11:20:17;95901.25;;;12.44;57.60
1401;BME280;46518;48.842;8.926;2024-03-02T11:22:49;95897.63;;;12.72;59.32
1401;BME280;46518;48.842;8.926;2024-03-02T11:25:23;95871.53;;;12.38;57.29
1401;BME280;46518;48.842;8.926;2024-03-02T11:28:02;95865.03;;;12.30;56.76
1401;BME280;46518;48.842;8.926;2024-03-02T11:30:50;95867.28;;;12.56;58.28
1401;BME280;46518;48.842;8.926;2024-03-02T11:33:25;95840.66;;;12.52;56.63
1401;BME280;46518;48.842;8.926;2024-03-02T11:36:01;95842.44;;;12.57;58.71
1401;BME280;46518;48.842;8.926;2024-03-02T11:38:35;95849.47;;;12.81;56.54
1401;BME280;46518;48.842;8.926;2024-03-02T11:41:07;95836.59;;;13.07;55.17
1401;BME280;46518;48.842;8.926;2024-03-02T11:43:44;95862.22;;;13.06;54.88
1401;BME280;46518;48.842;8.926;2024-03-02T11:46:22;95864.19;;;13.01;53.85
1401;BME280;46518;48.842;8.926;2024-03-02T11:48:53;95851.81;;;12.82;54.13
1401;BME280;46518;48.842;8.926;2024-03-02T11:51:24;95861.25;;;13.16;52.96
1401;BME280;46518;48.842;8.926;2024-03-02T11:53:54;95850.53;;;13.40;54.73
1401;BME280;46518;48.842;8.926;2024-03-02T11:56:33;95848.34;;;13.70;52.87
1401;BME280;46518;48.842;8.926;2024-03-02T11:59:05;95836.63;;;13.34;51.99
1401;BME280;46518;48.842;8.926;2024-03-02T12:01:35;95809.47;;;13.70;50.73
1401;BME280;46518;48.842;8.926;2024-03-02T12:04:07;95826.63;;;13.73;51.83
1401;BME280;46518;48.842;8.926;2024-03-02T12:06:39;95811.69;;;13.91;52.68
1401;BME280;46518;48.842;8.926;2024-03-02T12:09:09;95815.44;;;13.76;52.47
1401;BME280;46518;48.842;8.926;2024-03-02T12:11:40;95811.13;;;13.80;52.07
1401;BME280;46518;48.842;8.926;2024-03-02T12:14:11;95799.00;;;13.79;51.15
1401;BME280;46518;48.842;8.926;2024-03-02T12:16:44;95812.06;;;13.98;50.45
1401;BME280;46518;48.842;8.926;2024-03-02T12:19:13;95809.25;;;14.39;49.39
1401;BME280;46518;48.842;8.926;2024-03-02T12:21:46;95797.28;;;14.19;49.04
1401;BME280;46518;48.842;8.926;2024-03-02T12:24:15;95806.97;;;14.46;48.04
1401;BME280;46518;48.842;8.926;2024-03-02T12:26:44;95791.53;;;14.94;48.34
1401;BME280;46518;48.842;8.926;2024-03-02T12:29:14;95796.81;;;15.34;49.18
1401;BME280;46518;48.842;8.926;2024-03-02T12:31:43;95789.84;;;15.06;47.90
1401;BME280;46518;48.842;8.926;2024-03-02T12:34:13;95794.69;;;15.04;48.65
1401;BME280;46518;48.842;8.926;2024-03-02T12:36:42;95790.59;;;15.38;46.43
1401;BME280;46518;48.842;8.926;2024-03-02T12:39:16;95785.97;;;15.04;46.32
1401;BME280;46518;48.842;8.926;2024-03-02T12:41:46;95783.84;;;15.23;44.48
1401;BME280;46518;48.842;8.926;2024-03-02T12:44:19;95780.34;;;15.05;48.11
1401;BME280;46518;48.842;8.926;2024-03-02T12:46:54;95776.19;;;14.82;46.81
1401;BME280;46518;48.842;8.926;2024-03-02T12:49:30;95773.03;;;15.11;46.11
1401;BME280;46518;48.842;8.926;2024-03-02T12:51:59;95762.84;;;15.44;46.06
1401;BME280;46518;48.842;8.926;2024-03-02T12:54:29;95782.13;;;15.27;47.75
1401;BME280;46518;48.842;8.926;2024-03-02T12:56:59;95781.28;;;15.09;47.19
1401;BME280;46518;48.842;8.926;2024-03-02T12:59:28;95777.53;;;15.59;46.31
1401;BME280;46518;48.842;8.926;2024-03-02T13:01:58;95781.34;;;15.76;43.76
1401;BME280;46518;48.842;8.926;2024-03-02T13:04:28;95771.66;;;15.97;45.17
1401;BME280;46518;48.842;8.926;2024-03-02T13:06:57;95775.22;;;15.92;44.61
1401;BME280;46518;48.842;8.926;2024-03-02T13:09:28;95768.06;;;16.02;44.60
1401;BME280;46518;48.842;8.926;2024-03-02T13:11:56;95774.09;;;15.59;42.84
1401;BME280;46518;48.842;8.926;2024-03-02T13:14:26;95762.91;;;15.70;44.74
1401;BME280;46518;48.842;8.926;2024-03-02T13:16:54;95761.81;;;16.06;44.80
1401;BME280;46518;48.842;8.926;2024-03-02T13:19:28;95766.81;;;15.73;43.67
1401;BME280;46518;48.842;8.926;2024-03-02T13:21:58;95758.53;;;15.74;43.69
1401;BME280;46518;48.842;8.926;2024-03-02T13:24:26;95757.94;;;15.95;46.23
1401;BME280;46518;48.842;8.926;2024-03-02T13:26:57;95753.72;;;16.03;43.79
1401;BME280;46518;48.842;8.926;2024-03-02T13:29:27;95749.91;;;16.38;44.49
1401;BME280;46518;48.842;8.926;2024-03-02T13:31:55;95752.84;;;15.50;45.04
1401;BME280;46518;48.842;8.926;2024-03-02T13:34:25;95752.16;;;15.76;44.25
1401;BME280;46518;48.842;8.926;2024-03-02T13:36:53;95750.97;;;15.33;45.44
1401;BME280;46518;48.842;8.926;2024-03-02T13:39:23;95751.50;;;14.95;45.37